createdAt,value
2022-09-23T00:01:22.414Z,100.00
2022-09-23T00:03:49.902Z,100.00
2022-09-23T00:06:22.286Z,100.00
2022-09-23T00:08:51.020Z,100.00
2022-09-23T00:11:26.101Z,100.00
2022-09-23T00:13:56.678Z,100.00
2022-09-23T00:16:29.187Z,100.00
2022-09-23T00:18:56.758Z,100.00
2022-09-23T00:21:25.077Z,100.00
2022-09-23T00:23:52.595Z,100.00
2022-09-23T00:26:22.099Z,100.00
2022-09-23T00:28:50.255Z,100.00
2022-09-23T00:31:23.448Z,100.00
2022-09-23T00:33:58.057Z,100.00
2022-09-23T00:36:26.675Z,100.00
2022-09-23T00:38:54.887Z,100.00
2022-09-23T00:41:22.497Z,100.00
2022-09-23T00:43:55.089Z,100.00
2022-09-23T00:49:13.598Z,100.00
2022-09-23T00:51:49.974Z,100.00
2022-09-23T00:54:18.673Z,100.00
2022-09-23T00:56:45.929Z,100.00
2022-09-23T00:59:31.907Z,100.00
2022-09-23T01:02:01.154Z,100.00
2022-09-23T01:04:34.769Z,100.00
2022-09-23T01:07:02.277Z,100.00
2022-09-23T01:09:29.437Z,100.00
2022-09-23T01:12:41.545Z,100.00
2022-09-23T01:15:49.878Z,100.00
2022-09-23T01:22:38.686Z,100.00
2022-09-23T01:47:06.692Z,100.00
2022-09-23T01:52:26.460Z,100.00
2022-09-23T01:55:08.672Z,100.00
2022-09-23T01:57:41.330Z,100.00
2022-09-23T02:02:56.278Z,100.00
2022-09-23T02:08:06.522Z,100.00
2022-09-23T02:10:37.483Z,100.00
2022-09-23T02:13:36.890Z,100.00
2022-09-23T02:16:11.230Z,100.00
2022-09-23T02:18:47.324Z,100.00
2022-09-23T02:21:16.462Z,100.00
2022-09-23T02:23:50.550Z,100.00
2022-09-23T02:29:14.943Z,100.00
2022-09-23T02:37:46.848Z,100.00
2022-09-23T02:45:39.235Z,100.00
2022-09-23T02:48:12.337Z,100.00
2022-09-23T02:50:41.455Z,100.00
2022-09-23T02:53:10.507Z,100.00
2022-09-23T02:55:39.474Z,100.00
2022-09-23T02:58:08.580Z,100.00
2022-09-23T03:00:51.125Z,100.00
2022-09-23T03:03:33.982Z,100.00
2022-09-23T03:06:08.543Z,100.00
2022-09-23T03:08:53.390Z,100.00
2022-09-23T03:11:21.230Z,100.00
2022-09-23T03:24:31.218Z,100.00
2022-09-23T03:27:03.738Z,100.00
2022-09-23T03:29:32.581Z,100.00
2022-09-23T03:32:00.138Z,100.00
2022-09-23T03:34:29.676Z,100.00
2022-09-23T03:37:02.100Z,100.00
2022-09-23T03:42:19.872Z,100.00
2022-09-23T03:44:48.825Z,100.00
2022-09-23T03:47:16.609Z,100.00
2022-09-23T03:49:48.258Z,100.00
2022-09-23T03:52:16.797Z,100.00
2022-09-23T03:54:45.049Z,100.00
2022-09-23T03:57:13.584Z,100.00
2022-09-23T03:59:41.365Z,100.00
2022-09-23T04:02:09.603Z,100.00
2022-09-23T04:04:38.901Z,100.00
2022-09-23T04:07:06.454Z,100.00
2022-09-23T04:09:34.037Z,100.00
2022-09-23T04:12:01.852Z,100.00
2022-09-23T04:14:29.909Z,100.00
2022-09-23T04:16:57.573Z,100.00
2022-09-23T04:19:25.582Z,100.00
2022-09-23T04:21:53.620Z,100.00
2022-09-23T04:24:21.723Z,100.00
2022-09-23T04:26:52.557Z,100.00
2022-09-23T04:29:20.741Z,100.00
2022-09-23T04:31:48.700Z,100.00
2022-09-23T04:34:17.333Z,100.00
2022-09-23T04:36:46.360Z,100.00
2022-09-23T04:39:15.079Z,100.00
2022-09-23T04:41:43.488Z,100.00
2022-09-23T04:44:12.513Z,100.00
2022-09-23T04:46:41.987Z,100.00
2022-09-23T04:49:09.823Z,100.00
2022-09-23T04:51:37.456Z,100.00
2022-09-23T04:54:04.971Z,100.00
2022-09-23T04:56:32.750Z,100.00
2022-09-23T04:59:01.696Z,100.00
2022-09-23T05:01:32.532Z,100.00
2022-09-23T05:04:03.027Z,100.00
2022-09-23T05:06:31.832Z,100.00
2022-09-23T05:08:59.517Z,100.00
2022-09-23T05:11:28.751Z,100.00
2022-09-23T05:13:56.535Z,100.00
2022-09-23T05:16:25.247Z,100.00
2022-09-23T05:18:53.836Z,100.00
2022-09-23T05:21:23.056Z,100.00
2022-09-23T05:23:55.052Z,100.00
2022-09-23T05:26:26.292Z,100.00
2022-09-23T05:28:54.329Z,100.00
2022-09-23T05:31:25.329Z,100.00
2022-09-23T05:33:55.828Z,100.00
2022-09-23T05:36:23.410Z,100.00
2022-09-23T05:38:51.483Z,100.00
2022-09-23T05:41:22.793Z,100.00
2022-09-23T05:43:51.786Z,100.00
2022-09-23T05:46:21.478Z,100.00
2022-09-23T05:48:49.635Z,100.00
2022-09-23T05:51:20.520Z,100.00
2022-09-23T05:53:52.525Z,100.00
2022-09-23T05:56:22.744Z,100.00
2022-09-23T05:58:51.702Z,100.00
2022-09-23T06:01:21.543Z,100.00
2022-09-23T06:03:49.632Z,100.00
2022-09-23T06:06:19.327Z,100.00
2022-09-23T06:08:50.126Z,100.00
2022-09-23T06:11:18.158Z,100.00
2022-09-23T06:13:46.257Z,100.00
2022-09-23T06:16:15.548Z,100.00
2022-09-23T06:18:44.717Z,100.00
2022-09-23T06:21:15.077Z,100.00
2022-09-23T06:23:43.769Z,100.00
2022-09-23T06:26:14.172Z,100.00
2022-09-23T06:28:45.208Z,100.00
2022-09-23T06:31:15.313Z,100.00
2022-09-23T06:33:44.889Z,100.00
2022-09-23T06:36:17.345Z,100.00
2022-09-23T06:38:52.191Z,100.00
2022-09-23T06:41:20.700Z,100.00
2022-09-23T06:43:48.310Z,100.00
2022-09-23T06:46:17.133Z,100.00
2022-09-23T06:48:46.316Z,100.00
2022-09-23T06:51:19.101Z,100.00
2022-09-23T06:53:48.162Z,100.00
2022-09-23T06:56:17.272Z,100.00
2022-09-23T06:58:44.972Z,100.00
2022-09-23T07:01:17.068Z,100.00
2022-09-23T07:03:47.524Z,100.00
2022-09-23T07:06:15.904Z,100.00
2022-09-23T07:08:44.885Z,100.00
2022-09-23T07:11:13.549Z,100.00
2022-09-23T07:13:42.678Z,100.00
2022-09-23T07:16:11.492Z,100.00
2022-09-23T07:18:40.738Z,100.00
2022-09-23T07:21:33.487Z,100.00
2022-09-23T07:24:21.835Z,100.00
2022-09-23T07:26:49.604Z,100.00
2022-09-23T07:29:17.129Z,100.00
2022-09-23T07:31:44.682Z,100.00
2022-09-23T07:34:12.595Z,100.00
2022-09-23T07:36:40.986Z,100.00
2022-09-23T07:39:11.155Z,100.00
2022-09-23T07:41:39.342Z,100.00
2022-09-23T07:44:06.938Z,100.00
2022-09-23T07:46:36.056Z,100.00
2022-09-23T07:49:05.275Z,100.00
2022-09-23T07:51:36.558Z,98.05
2022-09-23T07:54:08.316Z,96.16
2022-09-23T07:56:37.146Z,95.10
2022-09-23T07:59:08.467Z,92.26
2022-09-23T08:01:39.062Z,93.90
2022-09-23T08:04:12.564Z,90.84
2022-09-23T08:06:42.551Z,88.23
2022-09-23T08:09:10.719Z,88.80
2022-09-23T08:11:42.068Z,89.07
2022-09-23T08:14:13.139Z,85.56
2022-09-23T08:16:42.239Z,83.21
2022-09-23T08:19:10.403Z,83.61
2022-09-23T08:21:40.267Z,81.19
2022-09-23T08:24:09.915Z,80.38
2022-09-23T08:26:37.926Z,79.67
2022-09-23T08:29:06.751Z,78.11
2022-09-23T08:31:34.457Z,75.54
2022-09-23T08:34:02.203Z,75.16
2022-09-23T08:36:31.344Z,73.17
2022-09-23T08:38:59.879Z,71.62
2022-09-23T08:44:14.086Z,72.04
2022-09-23T08:46:49.194Z,68.99
2022-09-23T08:49:25.280Z,71.51
2022-09-23T08:51:54.849Z,73.85
2022-09-23T08:54:23.213Z,74.65
2022-09-23T08:56:52.333Z,72.45
2022-09-23T08:59:29.808Z,70.40
2022-09-23T09:02:08.336Z,67.47
2022-09-23T09:10:26.791Z,62.34
2022-09-23T09:13:02.002Z,63.71
2022-09-23T09:15:29.683Z,63.08
2022-09-23T09:18:07.698Z,62.08
2022-09-23T09:20:57.443Z,64.03
2022-09-23T09:26:21.272Z,65.33
2022-09-23T09:28:59.082Z,63.19
2022-09-23T09:31:44.615Z,62.63
2022-09-23T09:39:55.026Z,58.34
2022-09-23T09:42:27.391Z,57.76
2022-09-23T09:50:52.171Z,57.49
2022-09-23T09:56:05.069Z,56.99
2022-09-23T10:01:32.737Z,56.09
2022-09-23T10:04:02.333Z,56.03
2022-09-23T10:06:33.154Z,55.91
2022-09-23T10:11:40.855Z,56.43
2022-09-23T10:17:05.055Z,55.78
2022-09-23T10:19:35.384Z,55.78
2022-09-23T10:22:06.578Z,54.90
2022-09-23T10:24:38.332Z,54.01
2022-09-23T10:27:08.710Z,54.40
2022-09-23T10:32:46.552Z,55.03
2022-09-23T10:35:16.651Z,53.53
2022-09-23T10:40:52.287Z,53.38
2022-09-23T10:46:23.146Z,54.37
2022-09-23T10:51:39.566Z,52.53
2022-09-23T10:54:35.647Z,51.09
2022-09-23T10:57:38.731Z,50.61
2022-09-23T11:06:21.626Z,49.33
2022-09-23T11:09:13.998Z,47.99
2022-09-23T11:11:52.463Z,48.39
2022-09-23T11:15:00.109Z,45.91
2022-09-23T11:37:07.402Z,44.24
2022-09-23T11:39:45.946Z,44.88
2022-09-23T11:42:20.149Z,43.96
2022-09-23T11:44:54.503Z,43.09
2022-09-23T11:47:26.148Z,42.57
2022-09-23T11:50:01.702Z,41.14
2022-09-23T11:52:51.858Z,41.14
2022-09-23T11:55:27.472Z,41.24
2022-09-23T11:58:00.954Z,39.14
2022-09-23T12:00:35.785Z,38.49
2022-09-23T12:03:31.975Z,38.35
2022-09-23T12:06:13.782Z,38.46
2022-09-23T12:08:40.999Z,37.25
2022-09-23T12:28:07.113Z,27.52
2022-09-23T12:30:37.243Z,26.41
2022-09-23T12:41:48.258Z,25.14
2022-09-23T12:49:54.402Z,25.93
2022-09-23T12:52:29.353Z,25.49
2022-09-23T12:55:10.086Z,25.24
2022-09-23T13:00:28.873Z,23.43
2022-09-23T13:03:20.499Z,23.83
2022-09-23T13:06:16.379Z,24.36
2022-09-23T13:08:43.731Z,25.73
2022-09-23T13:11:30.301Z,25.87
2022-09-23T13:14:04.621Z,25.81
2022-09-23T13:16:38.160Z,25.60
2022-09-23T13:22:13.947Z,24.16
2022-09-23T13:30:06.022Z,25.38
2022-09-23T13:32:48.491Z,25.69
2022-09-23T13:35:26.361Z,26.01
2022-09-23T13:37:54.210Z,27.04
2022-09-23T13:43:07.377Z,26.55
2022-09-23T13:45:39.928Z,26.76
2022-09-23T13:48:12.926Z,28.02
2022-09-23T13:50:48.630Z,29.07
2022-09-23T13:58:46.330Z,30.81
2022-09-23T14:01:34.893Z,29.93
2022-09-23T14:04:02.744Z,30.04
2022-09-23T14:06:31.534Z,29.77
2022-09-23T14:09:01.588Z,30.66
2022-09-23T14:11:33.189Z,31.78
2022-09-23T14:14:07.077Z,31.36
2022-09-23T14:16:38.514Z,30.29
2022-09-23T14:19:07.953Z,30.96
2022-09-23T14:21:39.049Z,30.11
2022-09-23T14:29:47.005Z,29.33
2022-09-23T14:32:26.009Z,28.70
2022-09-23T14:35:16.574Z,29.47
2022-09-23T14:38:06.537Z,32.35
2022-09-23T14:40:38.117Z,31.33
2022-09-23T14:43:25.607Z,31.37
2022-09-23T14:45:56.520Z,32.74
2022-09-23T14:48:29.861Z,31.14
2022-09-23T14:51:01.877Z,31.39
2022-09-23T14:56:21.219Z,28.70
2022-09-23T15:01:37.331Z,29.07
2022-09-23T15:07:04.238Z,27.74
2022-09-23T15:09:37.591Z,27.73
2022-09-23T15:12:13.300Z,27.97
2022-09-23T15:14:46.418Z,27.52
2022-09-23T15:20:02.228Z,29.18
2022-09-23T15:22:29.572Z,30.45
2022-09-23T15:28:00.264Z,31.86
2022-09-23T15:30:27.807Z,31.73
2022-09-23T15:32:55.081Z,32.75
2022-09-23T15:35:26.513Z,32.83
2022-09-23T15:37:58.800Z,33.05
2022-09-23T15:40:32.634Z,34.00
2022-09-23T15:43:07.096Z,34.37
2022-09-23T15:45:40.619Z,34.89
2022-09-23T15:48:22.624Z,34.91
2022-09-23T15:50:51.645Z,34.90
2022-09-23T15:53:23.287Z,35.28
2022-09-23T15:55:51.551Z,35.74
2022-09-23T15:58:20.501Z,36.27
2022-09-23T16:00:56.204Z,36.53
2022-09-23T16:03:28.320Z,36.37
2022-09-23T16:06:02.377Z,37.30
2022-09-23T16:08:33.070Z,37.00
2022-09-23T16:11:00.690Z,37.67
2022-09-23T16:13:28.766Z,38.19
2022-09-23T16:15:56.334Z,39.25
2022-09-23T16:18:23.697Z,39.61
2022-09-23T16:20:51.181Z,40.46
2022-09-23T16:23:43.358Z,41.62
2022-09-23T16:28:51.206Z,42.37
2022-09-23T16:31:25.437Z,43.96
2022-09-23T16:33:53.665Z,44.51
2022-09-23T16:39:06.802Z,45.58
2022-09-23T16:41:34.431Z,45.65
2022-09-23T16:44:04.646Z,47.43
2022-09-23T16:46:32.389Z,47.87
2022-09-23T16:49:00.356Z,48.10
2022-09-23T16:51:33.915Z,48.40
2022-09-23T16:54:01.837Z,49.96
2022-09-23T16:56:30.880Z,51.78
2022-09-23T16:58:58.039Z,53.36
2022-09-23T17:01:48.139Z,53.69
2022-09-23T17:04:19.278Z,54.27
2022-09-23T17:06:50.412Z,53.96
2022-09-23T17:09:21.116Z,55.23
2022-09-23T17:11:58.715Z,54.95
2022-09-23T17:14:26.470Z,56.01
2022-09-23T17:16:53.844Z,56.75
2022-09-23T17:19:20.923Z,58.72
2022-09-23T17:21:47.994Z,58.72
2022-09-23T17:24:15.476Z,59.41
2022-09-23T17:26:43.997Z,59.43
2022-09-23T17:29:11.778Z,60.45
2022-09-23T17:31:39.358Z,62.06
2022-09-23T17:34:06.561Z,62.92
2022-09-23T17:36:33.621Z,64.41
2022-09-23T17:39:00.870Z,64.49
2022-09-23T17:41:28.139Z,65.15
2022-09-23T17:43:58.402Z,65.77
2022-09-23T17:46:25.913Z,65.94
2022-09-23T17:48:55.394Z,67.15
2022-09-23T17:51:24.079Z,69.04
2022-09-23T17:53:51.683Z,69.57
2022-09-23T17:56:25.510Z,71.26
2022-09-23T17:58:53.869Z,73.93
2022-09-23T18:01:25.518Z,74.47
2022-09-23T18:03:56.351Z,75.90
2022-09-23T18:06:28.087Z,77.68
2022-09-23T18:08:56.050Z,78.07
2022-09-23T18:11:26.248Z,79.75
2022-09-23T18:13:59.749Z,78.48
2022-09-23T18:16:32.076Z,79.76
2022-09-23T18:19:01.934Z,80.85
2022-09-23T18:21:33.048Z,82.81
2022-09-23T18:26:49.745Z,83.55
2022-09-23T18:29:17.001Z,83.83
2022-09-23T18:31:45.206Z,85.69
2022-09-23T18:34:17.092Z,83.59
2022-09-23T18:36:44.680Z,83.27
2022-09-23T18:39:11.956Z,84.22
2022-09-23T18:41:39.101Z,86.56
2022-09-23T18:44:06.440Z,86.77
2022-09-23T18:46:33.652Z,85.92
2022-09-23T18:49:20.798Z,88.28
2022-09-23T18:51:58.338Z,90.77
2022-09-23T18:54:28.438Z,90.33
2022-09-23T18:56:56.547Z,89.88
2022-09-23T18:59:32.661Z,90.94
2022-09-23T19:02:00.374Z,92.36
2022-09-23T19:04:27.936Z,95.41
2022-09-23T19:06:56.596Z,94.52
2022-09-23T19:09:24.340Z,94.02
2022-09-23T19:11:52.620Z,95.43
2022-09-23T19:14:20.186Z,96.65
2022-09-23T19:16:49.334Z,96.58
2022-09-23T19:19:16.975Z,97.07
2022-09-23T19:21:44.152Z,96.90
2022-09-23T19:24:15.609Z,97.61
2022-09-23T19:26:44.038Z,97.30
2022-09-23T19:29:17.198Z,99.27
2022-09-23T19:31:44.460Z,99.89
2022-09-23T19:34:17.653Z,99.55
2022-09-23T19:36:46.899Z,99.99
2022-09-23T19:41:55.788Z,100.00
2022-09-23T19:44:25.045Z,100.00
2022-09-23T19:46:56.291Z,100.00
2022-09-23T19:49:25.715Z,100.00
2022-09-23T19:51:55.691Z,100.00
2022-09-23T19:54:26.537Z,100.00
2022-09-23T19:56:53.630Z,100.00
2022-09-23T19:59:20.856Z,100.00
2022-09-23T20:01:48.778Z,100.00
2022-09-23T20:04:16.924Z,100.00
2022-09-23T20:06:45.767Z,100.00
2022-09-23T20:09:12.855Z,100.00
2022-09-23T20:11:44.086Z,100.00
2022-09-23T20:14:11.811Z,100.00
2022-09-23T20:16:38.952Z,100.00
2022-09-23T20:19:06.232Z,100.00
2022-09-23T20:21:34.191Z,100.00
2022-09-23T20:24:05.218Z,100.00
2022-09-23T20:26:53.094Z,100.00
2022-09-23T20:29:20.500Z,100.00
2022-09-23T20:31:48.117Z,100.00
2022-09-23T20:34:15.382Z,100.00
2022-09-23T20:36:42.597Z,100.00
2022-09-23T20:39:10.447Z,100.00
2022-09-23T20:41:39.377Z,100.00
2022-09-23T20:44:12.419Z,100.00
2022-09-23T20:46:47.523Z,100.00
2022-09-23T20:49:16.739Z,100.00
2022-09-23T20:51:44.136Z,100.00
2022-09-23T20:54:12.175Z,100.00
2022-09-23T20:56:39.579Z,100.00
2022-09-23T20:59:06.757Z,100.00
2022-09-23T21:01:36.475Z,100.00
2022-09-23T21:04:05.889Z,100.00
2022-09-23T21:06:35.042Z,100.00
2022-09-23T21:09:04.187Z,100.00
2022-09-23T21:11:32.141Z,100.00
2022-09-23T21:14:01.452Z,100.00
2022-09-23T21:16:31.113Z,100.00
2022-09-23T21:18:58.961Z,100.00
2022-09-23T21:21:26.933Z,100.00
2022-09-23T21:23:56.496Z,100.00
2022-09-23T21:26:32.179Z,100.00
2022-09-23T21:29:00.845Z,100.00
2022-09-23T21:31:33.715Z,100.00
2022-09-23T21:34:07.665Z,100.00
2022-09-23T21:36:38.199Z,100.00
2022-09-23T21:39:06.914Z,100.00
2022-09-23T21:41:34.436Z,100.00
2022-09-23T21:44:04.514Z,100.00
2022-09-23T21:46:33.824Z,100.00
2022-09-23T21:49:03.884Z,100.00
2022-09-23T21:51:37.665Z,100.00
2022-09-23T21:54:05.798Z,100.00
2022-09-23T21:56:36.277Z,100.00
2022-09-23T21:59:04.909Z,100.00
2022-09-23T22:01:34.975Z,100.00
2022-09-23T22:04:08.446Z,100.00
2022-09-23T22:06:38.198Z,100.00
2022-09-23T22:09:08.963Z,100.00
2022-09-23T22:11:57.455Z,100.00
2022-09-23T22:14:28.119Z,100.00
2022-09-23T22:16:59.316Z,100.00
2022-09-23T22:19:32.709Z,100.00
2022-09-23T22:22:01.771Z,100.00
2022-09-23T22:24:29.611Z,100.00
2022-09-23T22:26:57.742Z,100.00
2022-09-23T22:29:45.258Z,100.00
2022-09-23T22:32:33.449Z,100.00
2022-09-23T22:35:01.238Z,100.00
2022-09-23T22:37:34.121Z,100.00
2022-09-23T22:40:04.329Z,100.00
2022-09-23T22:42:32.732Z,100.00
2022-09-23T22:45:00.472Z,100.00
2022-09-23T22:47:28.142Z,100.00
2022-09-23T22:49:55.665Z,100.00
2022-09-23T22:52:24.411Z,100.00
2022-09-23T22:54:52.236Z,100.00
2022-09-23T22:57:19.873Z,100.00
2022-09-23T22:59:48.207Z,100.00
2022-09-23T23:02:18.215Z,100.00
2022-09-23T23:04:47.198Z,100.00
2022-09-23T23:07:20.926Z,100.00
2022-09-23T23:09:50.505Z,100.00
2022-09-23T23:12:19.945Z,100.00
2022-09-23T23:14:53.486Z,100.00
2022-09-23T23:17:21.826Z,100.00
2022-09-23T23:19:51.020Z,100.00
2022-09-23T23:22:18.569Z,100.00
2022-09-23T23:24:46.066Z,100.00
2022-09-23T23:27:13.581Z,100.00
2022-09-23T23:29:41.343Z,100.00
2022-09-23T23:32:14.146Z,100.00
2022-09-23T23:34:42.175Z,100.00
2022-09-23T23:37:09.952Z,100.00
2022-09-23T23:39:37.434Z,100.00
2022-09-23T23:42:05.140Z,100.00
2022-09-23T23:44:34.103Z,100.00
2022-09-23T23:47:01.747Z,100.00
2022-09-23T23:49:29.377Z,100.00
2022-09-23T23:51:56.865Z,100.00
2022-09-23T23:54:24.342Z,100.00
2022-09-23T23:56:51.955Z,100.00
2022-09-23T23:59:20.784Z,100.00
